Diamond Lake, OR

8:06 PM PDT on August 27, 2014 (GMT -0700)
Klamath Falls International | Change Station
CLOSE
Current Station
Airport
Location: Klamath Falls,
Elevation: 4091 ft
Nearby Weather Stations

Elev 4091 ft 42.15 °N, 121.72 °W | Updated 13 minutes ago

Smoke
Smoke
77 °F
Feels Like 77 °F
N
9
Wind Variable Wind from NNW

Today
High -- | Low -- °F
--% Chance of Precip.
Yesterday
High -- | Low -- °F
Precip. -- in
6:26 AM 7:50 PM
Waxing Crescent, 6% visible
Pressure 30.02 in
Visibility 10.0 miles
Clouds Clear
Dew Point 43 °F
Humidity 30%
Rainfall 0.00 in
Snow Depth 0 in
UV 0 out of 12
Pollen 6.30 out of 12
Air Quality Not available.
Flu Activity Not available.
METAR KLMT 280253Z 33008KT 10SM FU CLR 25/06 A3013 RMK AO2 SLP165 T02500061 53004

More Conditions Fewer Conditions

Pressure 30.02 in
Visibility 10.0 miles
Clouds Clear
Dew Point 43 °F
Humidity 30%
Rainfall 0.00 in
Snow Depth 0 in
UV 0 out of 12
Pollen 6.30 out of 12
Air Quality Not available.
Flu Activity Not available.
METAR KLMT 280253Z 33008KT 10SM FU CLR 25/06 A3013 RMK AO2 SLP165 T02500061 53004

More Conditions Fewer Conditions

10-Day Weather Forecast

Almanac

Astronomy

Aug. 27, 2014 Rise Set
Actual Time 6:26 AM PDT 7:50 PM PDT
Civil Twilight 5:56 AM PDT 8:20 PM PDT
Nautical Twilight 5:21 AM PDT 8:55 PM PDT
Astronomical Twilight 4:43 AM PDT 9:33 PM PDT
Moon 8:31 AM PDT (8/27) 8:40 PM PDT (8/27)
Length of Visible Light 14h 23m
Length of Day
13h 24m
Tomorrow will be 2m 46s shorter.
Waxing Crescent, 6% of the Moon is Illuminated
Today
Waxing Crescent
Sep 2
First Quarter
Sep 8
Full
Sep 15
Last Quarter
Sep 24
New

Today's Extremes

State Highs State Lows

Community

WunderPhotos

Upload Photos

1,747,888 photos uploaded!

Nearby

Snow Depth

Station Depth Elevation
Diamond Lake 0 in 5315 ft
New Crescent Lake 0 in 4800 ft
Sevenmile Marsh 0 in 6200 ft
Cold Springs Camp 0 in 6100 ft
Fourmile Lake 1 in 6000 ft

Earthquake Activity

City Distance Mag. Time & Date
No recent earthquake activity has been reported nearby.
Minimum magnitude displayed is 2.5.

Coastal Water Temperatures

Place Temperature
No Stations Reporting

Nearby Weather Stations